sensor_id;sensor_type;location;lat;lon;timestamp;P1;durP1;ratioP1;P2;durP2;ratioP2
83282;SDS011;73190;50.780;5.658;2024-03-25T00:01:55;15.15;;;3.83;;
83282;SDS011;73190;50.780;5.658;2024-03-25T00:04:22;12.35;;;3.62;;
83282;SDS011;73190;50.780;5.658;2024-03-25T00:06:50;13.15;;;3.70;;
83282;SDS011;73190;50.780;5.658;2024-03-25T00:09:19;13.48;;;4.33;;
83282;SDS011;73190;50.780;5.658;2024-03-25T00:11:47;18.85;;;4.03;;
83282;SDS011;73190;50.780;5.658;2024-03-25T00:14:14;16.30;;;4.05;;
83282;SDS011;73190;50.780;5.658;2024-03-25T00:16:42;12.45;;;3.62;;
83282;SDS011;73190;50.780;5.658;2024-03-25T00:19:12;12.82;;;3.47;;
83282;SDS011;73190;50.780;5.658;2024-03-25T00:21:40;17.27;;;3.83;;
83282;SDS011;73190;50.780;5.658;2024-03-25T00:24:08;13.05;;;3.87;;
83282;SDS011;73190;50.780;5.658;2024-03-25T00:26:36;14.03;;;3.50;;
83282;SDS011;73190;50.780;5.658;2024-03-25T00:29:03;14.23;;;3.83;;
83282;SDS011;73190;50.780;5.658;2024-03-25T00:31:31;10.05;;;3.40;;
83282;SDS011;73190;50.780;5.658;2024-03-25T00:34:00;9.40;;;3.15;;
83282;SDS011;73190;50.780;5.658;2024-03-25T00:36:28;12.15;;;3.00;;
83282;SDS011;73190;50.780;5.658;2024-03-25T00:38:55;18.57;;;3.30;;
83282;SDS011;73190;50.780;5.658;2024-03-25T00:41:23;16.77;;;3.47;;
83282;SDS011;73190;50.780;5.658;2024-03-25T00:43:50;9.05;;;2.85;;
83282;SDS011;73190;50.780;5.658;2024-03-25T00:46:18;10.30;;;3.37;;
83282;SDS011;73190;50.780;5.658;2024-03-25T00:48:45;17.27;;;3.75;;
83282;SDS011;73190;50.780;5.658;2024-03-25T00:51:13;11.12;;;3.20;;
83282;SDS011;73190;50.780;5.658;2024-03-25T00:53:40;12.10;;;3.33;;
83282;SDS011;73190;50.780;5.658;2024-03-25T00:56:09;12.30;;;3.40;;
83282;SDS011;73190;50.780;5.658;2024-03-25T00:58:36;10.78;;;3.55;;
83282;SDS011;73190;50.780;5.658;2024-03-25T01:01:04;11.78;;;3.17;;
83282;SDS011;73190;50.780;5.658;2024-03-25T01:03:31;10.93;;;2.95;;
83282;SDS011;73190;50.780;5.658;2024-03-25T01:06:00;8.05;;;2.60;;
83282;SDS011;73190;50.780;5.658;2024-03-25T01:08:28;9.48;;;3.17;;
83282;SDS011;73190;50.780;5.658;2024-03-25T01:10:55;9.53;;;3.00;;
83282;SDS011;73190;50.780;5.658;2024-03-25T01:13:23;12.07;;;3.70;;
83282;SDS011;73190;50.780;5.658;2024-03-25T01:15:51;9.85;;;3.25;;
83282;SDS011;73190;50.780;5.658;2024-03-25T01:18:19;11.12;;;3.27;;
83282;SDS011;73190;50.780;5.658;2024-03-25T01:20:46;10.60;;;3.60;;
83282;SDS011;73190;50.780;5.658;2024-03-25T01:23:15;11.90;;;3.77;;
83282;SDS011;73190;50.780;5.658;2024-03-25T01:25:43;12.03;;;3.27;;
83282;SDS011;73190;50.780;5.658;2024-03-25T01:28:11;6.92;;;3.02;;
83282;SDS011;73190;50.780;5.658;2024-03-25T01:30:38;12.03;;;3.70;;
83282;SDS011;73190;50.780;5.658;2024-03-25T01:33:06;8.35;;;2.70;;
83282;SDS011;73190;50.780;5.658;2024-03-25T01:35:33;9.25;;;3.60;;
83282;SDS011;73190;50.780;5.658;2024-03-25T01:38:01;11.78;;;3.17;;
83282;SDS011;73190;50.780;5.658;2024-03-25T01:40:29;10.78;;;3.22;;
83282;SDS011;73190;50.780;5.658;2024-03-25T01:42:57;10.75;;;3.62;;
83282;SDS011;73190;50.780;5.658;2024-03-25T01:45:30;6.75;;;3.20;;
83282;SDS011;73190;50.780;5.658;2024-03-25T01:48:04;12.78;;;2.58;;
83282;SDS011;73190;50.780;5.658;2024-03-25T01:50:33;8.38;;;3.20;;
83282;SDS011;73190;50.780;5.658;2024-03-25T01:53:12;13.87;;;3.70;;
83282;SDS011;73190;50.780;5.658;2024-03-25T01:55:41;12.43;;;3.13;;
83282;SDS011;73190;50.780;5.658;2024-03-25T01:58:10;11.05;;;3.20;;
83282;SDS011;73190;50.780;5.658;2024-03-25T02:00:38;13.32;;;3.20;;
83282;SDS011;73190;50.780;5.658;2024-03-25T02:03:06;10.98;;;3.40;;
83282;SDS011;73190;50.780;5.658;2024-03-25T02:05:34;7.95;;;3.60;;
83282;SDS011;73190;50.780;5.658;2024-03-25T02:08:02;10.78;;;3.25;;
83282;SDS011;73190;50.780;5.658;2024-03-25T02:10:32;11.25;;;3.58;;
83282;SDS011;73190;50.780;5.658;2024-03-25T02:13:00;8.73;;;3.30;;
83282;SDS011;73190;50.780;5.658;2024-03-25T02:15:28;9.55;;;3.62;;
83282;SDS011;73190;50.780;5.658;2024-03-25T02:17:55;9.70;;;3.60;;
83282;SDS011;73190;50.780;5.658;2024-03-25T02:20:23;9.15;;;3.70;;
83282;SDS011;73190;50.780;5.658;2024-03-25T02:22:52;9.15;;;3.58;;
83282;SDS011;73190;50.780;5.658;2024-03-25T02:25:20;14.60;;;3.37;;
83282;SDS011;73190;50.780;5.658;2024-03-25T02:27:48;10.65;;;3.25;;
83282;SDS011;73190;50.780;5.658;2024-03-25T02:30:16;12.05;;;3.70;;
83282;SDS011;73190;50.780;5.658;2024-03-25T02:32:43;9.95;;;4.03;;
83282;SDS011;73190;50.780;5.658;2024-03-25T02:35:12;9.43;;;3.37;;
83282;SDS011;73190;50.780;5.658;2024-03-25T02:37:41;10.23;;;3.47;;
83282;SDS011;73190;50.780;5.658;2024-03-25T02:40:09;8.68;;;3.37;;
83282;SDS011;73190;50.780;5.658;2024-03-25T02:42:37;6.65;;;4.17;;
83282;SDS011;73190;50.780;5.658;2024-03-25T02:45:06;9.25;;;4.00;;
83282;SDS011;73190;50.780;5.658;2024-03-25T02:47:34;6.42;;;3.40;;
83282;SDS011;73190;50.780;5.658;2024-03-25T02:50:02;10.18;;;3.72;;
83282;SDS011;73190;50.780;5.658;2024-03-25T02:52:30;7.15;;;3.40;;
83282;SDS011;73190;50.780;5.658;2024-03-25T02:54:58;8.23;;;3.25;;
83282;SDS011;73190;50.780;5.658;2024-03-25T02:57:26;10.32;;;3.90;;
83282;SDS011;73190;50.780;5.658;2024-03-25T02:59:54;11.08;;;3.67;;
83282;SDS011;73190;50.780;5.658;2024-03-25T03:02:21;8.08;;;3.60;;
83282;SDS011;73190;50.780;5.658;2024-03-25T03:04:49;10.05;;;3.62;;
83282;SDS011;73190;50.780;5.658;2024-03-25T03:07:17;8.28;;;3.80;;
83282;SDS011;73190;50.780;5.658;2024-03-25T03:09:44;11.25;;;3.67;;
83282;SDS011;73190;50.780;5.658;2024-03-25T03:12:12;8.53;;;3.52;;
83282;SDS011;73190;50.780;5.658;2024-03-25T03:14:39;8.25;;;3.80;;
83282;SDS011;73190;50.780;5.658;2024-03-25T03:17:07;9.60;;;3.67;;
83282;SDS011;73190;50.780;5.658;2024-03-25T03:19:34;8.95;;;3.35;;
83282;SDS011;73190;50.780;5.658;2024-03-25T03:22:02;8.08;;;3.62;;
83282;SDS011;73190;50.780;5.658;2024-03-25T03:24:30;6.85;;;3.83;;
83282;SDS011;73190;50.780;5.658;2024-03-25T03:26:58;12.30;;;4.05;;
83282;SDS011;73190;50.780;5.658;2024-03-25T03:29:26;8.43;;;3.47;;
83282;SDS011;73190;50.780;5.658;2024-03-25T03:31:53;11.33;;;4.08;;
83282;SDS011;73190;50.780;5.658;2024-03-25T03:34:21;9.50;;;3.37;;
83282;SDS011;73190;50.780;5.658;2024-03-25T03:36:48;9.63;;;3.47;;
83282;SDS011;73190;50.780;5.658;2024-03-25T03:39:16;5.90;;;3.60;;
83282;SDS011;73190;50.780;5.658;2024-03-25T03:41:44;8.03;;;3.58;;
83282;SDS011;73190;50.780;5.658;2024-03-25T03:44:12;10.93;;;3.72;;
83282;SDS011;73190;50.780;5.658;2024-03-25T03:46:41;11.12;;;3.67;;
83282;SDS011;73190;50.780;5.658;2024-03-25T03:49:08;8.25;;;3.67;;
83282;SDS011;73190;50.780;5.658;2024-03-25T03:51:36;9.73;;;3.70;;
83282;SDS011;73190;50.780;5.658;2024-03-25T03:54:03;8.58;;;3.72;;
83282;SDS011;73190;50.780;5.658;2024-03-25T03:56:31;11.78;;;3.83;;
83282;SDS011;73190;50.780;5.658;2024-03-25T03:58:58;10.32;;;4.30;;
83282;SDS011;73190;50.780;5.658;2024-03-25T04:01:26;6.97;;;4.03;;
83282;SDS011;73190;50.780;5.658;2024-03-25T04:03:54;7.60;;;3.55;;
83282;SDS011;73190;50.780;5.658;2024-03-25T04:06:22;6.25;;;3.30;;
83282;SDS011;73190;50.780;5.658;2024-03-25T04:08:49;6.40;;;3.27;;
83282;SDS011;73190;50.780;5.658;2024-03-25T04:11:17;7.60;;;3.90;;
83282;SDS011;73190;50.780;5.658;2024-03-25T04:13:46;7.97;;;3.52;;
83282;SDS011;73190;50.780;5.658;2024-03-25T04:16:13;7.10;;;4.05;;
83282;SDS011;73190;50.780;5.658;2024-03-25T04:18:41;7.97;;;3.65;;
83282;SDS011;73190;50.780;5.658;2024-03-25T04:21:12;7.85;;;3.42;;
83282;SDS011;73190;50.780;5.658;2024-03-25T04:23:40;8.63;;;3.80;;
83282;SDS011;73190;50.780;5.658;2024-03-25T04:26:09;8.63;;;3.83;;
83282;SDS011;73190;50.780;5.658;2024-03-25T04:28:36;11.40;;;4.47;;
83282;SDS011;73190;50.780;5.658;2024-03-25T04:31:07;11.28;;;4.70;;
83282;SDS011;73190;50.780;5.658;2024-03-25T04:33:34;11.68;;;4.33;;
83282;SDS011;73190;50.780;5.658;2024-03-25T04:36:02;9.45;;;4.33;;
83282;SDS011;73190;50.780;5.658;2024-03-25T04:38:30;8.30;;;4.58;;
83282;SDS011;73190;50.780;5.658;2024-03-25T04:40:58;11.85;;;4.58;;
83282;SDS011;73190;50.780;5.658;2024-03-25T04:43:26;10.78;;;3.67;;
83282;SDS011;73190;50.780;5.658;2024-03-25T04:45:53;7.40;;;3.65;;
83282;SDS011;73190;50.780;5.658;2024-03-25T04:48:26;8.90;;;4.33;;
83282;SDS011;73190;50.780;5.658;2024-03-25T04:50:50;8.13;;;4.28;;
83282;SDS011;73190;50.780;5.658;2024-03-25T04:53:18;8.63;;;4.28;;
83282;SDS011;73190;50.780;5.658;2024-03-25T04:55:45;7.35;;;4.35;;
83282;SDS011;73190;50.780;5.658;2024-03-25T04:58:13;9.13;;;4.42;;
83282;SDS011;73190;50.780;5.658;2024-03-25T05:00:40;15.25;;;4.60;;
83282;SDS011;73190;50.780;5.658;2024-03-25T05:03:08;14.53;;;5.12;;
83282;SDS011;73190;50.780;5.658;2024-03-25T05:05:35;10.23;;;4.47;;
83282;SDS011;73190;50.780;5.658;2024-03-25T05:08:03;10.05;;;4.50;;
83282;SDS011;73190;50.780;5.658;2024-03-25T05:10:31;8.45;;;4.67;;
83282;SDS011;73190;50.780;5.658;2024-03-25T05:12:59;12.58;;;5.00;;
83282;SDS011;73190;50.780;5.658;2024-03-25T05:15:26;11.28;;;4.72;;
83282;SDS011;73190;50.780;5.658;2024-03-25T05:17:54;10.72;;;5.05;;
83282;SDS011;73190;50.780;5.658;2024-03-25T05:20:21;12.50;;;4.97;;
83282;SDS011;73190;50.780;5.658;2024-03-25T05:22:49;10.78;;;5.05;;
83282;SDS011;73190;50.780;5.658;2024-03-25T05:25:16;10.55;;;5.15;;
83282;SDS011;73190;50.780;5.658;2024-03-25T05:27:44;11.93;;;5.75;;
83282;SDS011;73190;50.780;5.658;2024-03-25T05:30:11;10.55;;;5.75;;
83282;SDS011;73190;50.780;5.658;2024-03-25T05:32:39;10.15;;;5.70;;
83282;SDS011;73190;50.780;5.658;2024-03-25T05:35:06;13.72;;;6.15;;
83282;SDS011;73190;50.780;5.658;2024-03-25T05:37:35;11.83;;;6.10;;
83282;SDS011;73190;50.780;5.658;2024-03-25T05:40:03;11.15;;;5.53;;
83282;SDS011;73190;50.780;5.658;2024-03-25T05:42:31;13.90;;;6.03;;
83282;SDS011;73190;50.780;5.658;2024-03-25T05:44:59;11.78;;;6.05;;
83282;SDS011;73190;50.780;5.658;2024-03-25T05:47:26;12.00;;;5.87;;
83282;SDS011;73190;50.780;5.658;2024-03-25T05:49:54;16.27;;;7.03;;
83282;SDS011;73190;50.780;5.658;2024-03-25T05:52:22;15.18;;;7.15;;
83282;SDS011;73190;50.780;5.658;2024-03-25T05:54:50;19.00;;;6.80;;
83282;SDS011;73190;50.780;5.658;2024-03-25T05:57:18;13.90;;;6.37;;
83282;SDS011;73190;50.780;5.658;2024-03-25T05:59:46;12.53;;;6.90;;
83282;SDS011;73190;50.780;5.658;2024-03-25T06:02:14;15.40;;;7.00;;
83282;SDS011;73190;50.780;5.658;2024-03-25T06:04:41;17.85;;;7.90;;
83282;SDS011;73190;50.780;5.658;2024-03-25T06:07:09;13.72;;;7.28;;
83282;SDS011;73190;50.780;5.658;2024-03-25T06:09:37;15.28;;;6.87;;
83282;SDS011;73190;50.780;5.658;2024-03-25T06:12:04;13.45;;;7.62;;
83282;SDS011;73190;50.780;5.658;2024-03-25T06:14:33;18.95;;;9.55;;
83282;SDS011;73190;50.780;5.658;2024-03-25T06:17:01;21.97;;;9.43;;
83282;SDS011;73190;50.780;5.658;2024-03-25T06:19:28;22.37;;;10.30;;
83282;SDS011;73190;50.780;5.658;2024-03-25T06:21:56;31.57;;;10.10;;
83282;SDS011;73190;50.780;5.658;2024-03-25T06:24:24;24.27;;;10.90;;
83282;SDS011;73190;50.780;5.658;2024-03-25T06:26:51;27.75;;;11.83;;
83282;SDS011;73190;50.780;5.658;2024-03-25T06:29:19;22.62;;;11.80;;
83282;SDS011;73190;50.780;5.658;2024-03-25T06:31:47;26.10;;;11.68;;
83282;SDS011;73190;50.780;5.658;2024-03-25T06:34:33;26.52;;;11.93;;
83282;SDS011;73190;50.780;5.658;2024-03-25T06:37:01;25.62;;;11.40;;
83282;SDS011;73190;50.780;5.658;2024-03-25T06:39:30;23.35;;;11.22;;
83282;SDS011;73190;50.780;5.658;2024-03-25T06:41:58;23.27;;;10.90;;
83282;SDS011;73190;50.780;5.658;2024-03-25T06:44:25;23.52;;;11.15;;
83282;SDS011;73190;50.780;5.658;2024-03-25T06:46:53;24.77;;;11.40;;
83282;SDS011;73190;50.780;5.658;2024-03-25T06:49:21;19.35;;;10.23;;
83282;SDS011;73190;50.780;5.658;2024-03-25T06:51:50;18.05;;;9.50;;
83282;SDS011;73190;50.780;5.658;2024-03-25T06:54:18;19.17;;;9.38;;
83282;SDS011;73190;50.780;5.658;2024-03-25T06:56:45;20.57;;;9.93;;
83282;SDS011;73190;50.780;5.658;2024-03-25T06:59:13;18.57;;;9.45;;
83282;SDS011;73190;50.780;5.658;2024-03-25T07:01:40;17.67;;;9.15;;
83282;SDS011;73190;50.780;5.658;2024-03-25T07:04:08;18.23;;;8.88;;
83282;SDS011;73190;50.780;5.658;2024-03-25T07:06:38;20.20;;;8.85;;
83282;SDS011;73190;50.780;5.658;2024-03-25T07:09:06;22.13;;;9.38;;
83282;SDS011;73190;50.780;5.658;2024-03-25T07:11:36;21.55;;;9.35;;
83282;SDS011;73190;50.780;5.658;2024-03-25T07:14:03;19.10;;;8.75;;
83282;SDS011;73190;50.780;5.658;2024-03-25T07:16:32;16.85;;;9.25;;
83282;SDS011;73190;50.780;5.658;2024-03-25T07:19:00;17.15;;;8.58;;
83282;SDS011;73190;50.780;5.658;2024-03-25T07:21:27;17.70;;;8.23;;
83282;SDS011;73190;50.780;5.658;2024-03-25T07:23:55;20.72;;;7.87;;
83282;SDS011;73190;50.780;5.658;2024-03-25T07:26:22;20.57;;;8.45;;
83282;SDS011;73190;50.780;5.658;2024-03-25T07:28:50;21.07;;;8.60;;
83282;SDS011;73190;50.780;5.658;2024-03-25T07:31:19;16.95;;;8.73;;
83282;SDS011;73190;50.780;5.658;2024-03-25T07:33:46;16.93;;;8.35;;
83282;SDS011;73190;50.780;5.658;2024-03-25T07:36:14;20.08;;;8.63;;
83282;SDS011;73190;50.780;5.658;2024-03-25T07:38:42;19.17;;;7.83;;
83282;SDS011;73190;50.780;5.658;2024-03-25T07:41:09;21.85;;;8.18;;
83282;SDS011;73190;50.780;5.658;2024-03-25T07:43:37;17.05;;;8.45;;
83282;SDS011;73190;50.780;5.658;2024-03-25T07:46:04;19.27;;;9.38;;
83282;SDS011;73190;50.780;5.658;2024-03-25T07:48:32;15.65;;;7.83;;
83282;SDS011;73190;50.780;5.658;2024-03-25T07:51:01;20.60;;;8.20;;
83282;SDS011;73190;50.780;5.658;2024-03-25T07:53:29;16.37;;;8.05;;
83282;SDS011;73190;50.780;5.658;2024-03-25T07:55:56;16.80;;;7.80;;
83282;SDS011;73190;50.780;5.658;2024-03-25T07:58:24;19.75;;;8.53;;
83282;SDS011;73190;50.780;5.658;2024-03-25T08:00:51;24.02;;;9.28;;
83282;SDS011;73190;50.780;5.658;2024-03-25T08:03:19;16.93;;;8.15;;
83282;SDS011;73190;50.780;5.658;2024-03-25T08:05:46;19.45;;;7.90;;
83282;SDS011;73190;50.780;5.658;2024-03-25T08:08:14;17.85;;;8.08;;
83282;SDS011;73190;50.780;5.658;2024-03-25T08:10:41;19.85;;;8.05;;
83282;SDS011;73190;50.780;5.658;2024-03-25T08:13:09;14.55;;;7.78;;
83282;SDS011;73190;50.780;5.658;2024-03-25T08:15:36;19.92;;;8.35;;
83282;SDS011;73190;50.780;5.658;2024-03-25T08:18:04;20.32;;;8.55;;
83282;SDS011;73190;50.780;5.658;2024-03-25T08:20:31;21.50;;;8.43;;
83282;SDS011;73190;50.780;5.658;2024-03-25T08:22:59;22.25;;;11.28;;
83282;SDS011;73190;50.780;5.658;2024-03-25T08:25:26;24.07;;;9.63;;
83282;SDS011;73190;50.780;5.658;2024-03-25T08:27:54;21.05;;;10.23;;
83282;SDS011;73190;50.780;5.658;2024-03-25T08:30:21;24.87;;;11.97;;
83282;SDS011;73190;50.780;5.658;2024-03-25T08:32:49;23.00;;;11.68;;
83282;SDS011;73190;50.780;5.658;2024-03-25T08:35:17;23.85;;;10.38;;
83282;SDS011;73190;50.780;5.658;2024-03-25T08:37:45;18.77;;;9.85;;
83282;SDS011;73190;50.780;5.658;2024-03-25T08:40:12;21.15;;;8.85;;
83282;SDS011;73190;50.780;5.658;2024-03-25T08:42:40;20.25;;;8.85;;
83282;SDS011;73190;50.780;5.658;2024-03-25T08:45:07;16.62;;;8.35;;
83282;SDS011;73190;50.780;5.658;2024-03-25T08:47:35;18.32;;;8.58;;
83282;SDS011;73190;50.780;5.658;2024-03-25T08:50:04;19.45;;;9.35;;
83282;SDS011;73190;50.780;5.658;2024-03-25T08:52:32;19.75;;;9.15;;
83282;SDS011;73190;50.780;5.658;2024-03-25T08:55:00;16.60;;;8.20;;
83282;SDS011;73190;50.780;5.658;2024-03-25T08:57:27;18.45;;;7.97;;
83282;SDS011;73190;50.780;5.658;2024-03-25T08:59:55;25.10;;;7.80;;
83282;SDS011;73190;50.780;5.658;2024-03-25T09:02:22;19.32;;;8.93;;
83282;SDS011;73190;50.780;5.658;2024-03-25T09:04:50;18.02;;;8.13;;
83282;SDS011;73190;50.780;5.658;2024-03-25T09:07:18;17.87;;;8.03;;
83282;SDS011;73190;50.780;5.658;2024-03-25T09:09:46;19.27;;;7.95;;
83282;SDS011;73190;50.780;5.658;2024-03-25T09:12:32;16.97;;;7.83;;
83282;SDS011;73190;50.780;5.658;2024-03-25T09:14:59;17.67;;;8.15;;
83282;SDS011;73190;50.780;5.658;2024-03-25T09:17:27;19.05;;;7.65;;
83282;SDS011;73190;50.780;5.658;2024-03-25T09:19:54;16.73;;;8.30;;
83282;SDS011;73190;50.780;5.658;2024-03-25T09:22:22;21.42;;;8.78;;
83282;SDS011;73190;50.780;5.658;2024-03-25T09:24:49;16.42;;;8.35;;
83282;SDS011;73190;50.780;5.658;2024-03-25T09:27:17;17.02;;;8.10;;
83282;SDS011;73190;50.780;5.658;2024-03-25T09:29:44;18.62;;;8.33;;
83282;SDS011;73190;50.780;5.658;2024-03-25T09:32:12;17.15;;;7.83;;
83282;SDS011;73190;50.780;5.658;2024-03-25T09:34:39;19.85;;;8.13;;
83282;SDS011;73190;50.780;5.658;2024-03-25T09:37:07;21.57;;;7.83;;
83282;SDS011;73190;50.780;5.658;2024-03-25T09:39:34;17.57;;;8.13;;
83282;SDS011;73190;50.780;5.658;2024-03-25T09:42:02;18.57;;;7.90;;
83282;SDS011;73190;50.780;5.658;2024-03-25T09:44:34;16.82;;;8.30;;
83282;SDS011;73190;50.780;5.658;2024-03-25T09:47:02;19.80;;;7.62;;
83282;SDS011;73190;50.780;5.658;2024-03-25T09:49:29;18.12;;;7.58;;
83282;SDS011;73190;50.780;5.658;2024-03-25T09:51:58;16.93;;;6.97;;
83282;SDS011;73190;50.780;5.658;2024-03-25T09:54:26;14.47;;;7.22;;
83282;SDS011;73190;50.780;5.658;2024-03-25T09:56:54;17.05;;;6.87;;
83282;SDS011;73190;50.780;5.658;2024-03-25T09:59:22;14.78;;;6.92;;
83282;SDS011;73190;50.780;5.658;2024-03-25T10:01:50;14.35;;;7.10;;
83282;SDS011;73190;50.780;5.658;2024-03-25T10:04:17;14.60;;;6.85;;
83282;SDS011;73190;50.780;5.658;2024-03-25T10:06:45;12.55;;;6.08;;
83282;SDS011;73190;50.780;5.658;2024-03-25T10:09:18;17.42;;;5.95;;
83282;SDS011;73190;50.780;5.658;2024-03-25T10:11:47;10.23;;;5.10;;
83282;SDS011;73190;50.780;5.658;2024-03-25T10:14:15;16.30;;;5.58;;
83282;SDS011;73190;50.780;5.658;2024-03-25T10:16:44;13.08;;;5.05;;
83282;SDS011;73190;50.780;5.658;2024-03-25T10:19:12;14.00;;;5.10;;
83282;SDS011;73190;50.780;5.658;2024-03-25T10:21:39;10.30;;;4.50;;
83282;SDS011;73190;50.780;5.658;2024-03-25T10:24:07;10.78;;;4.20;;
83282;SDS011;73190;50.780;5.658;2024-03-25T10:26:35;14.03;;;5.10;;
83282;SDS011;73190;50.780;5.658;2024-03-25T10:29:04;9.43;;;4.30;;
83282;SDS011;73190;50.780;5.658;2024-03-25T10:31:32;10.85;;;4.17;;
83282;SDS011;73190;50.780;5.658;2024-03-25T10:34:00;8.78;;;3.52;;
83282;SDS011;73190;50.780;5.658;2024-03-25T10:36:28;7.08;;;3.65;;
83282;SDS011;73190;50.780;5.658;2024-03-25T10:39:02;8.13;;;3.40;;
83282;SDS011;73190;50.780;5.658;2024-03-25T10:41:28;6.50;;;3.33;;
83282;SDS011;73190;50.780;5.658;2024-03-25T10:43:59;9.03;;;3.52;;
83282;SDS011;73190;50.780;5.658;2024-03-25T10:46:29;8.18;;;3.40;;
83282;SDS011;73190;50.780;5.658;2024-03-25T10:49:01;5.47;;;3.02;;
83282;SDS011;73190;50.780;5.658;2024-03-25T10:51:31;8.43;;;3.00;;
83282;SDS011;73190;50.780;5.658;2024-03-25T10:54:01;7.83;;;3.45;;
83282;SDS011;73190;50.780;5.658;2024-03-25T10:56:30;8.18;;;3.12;;
83282;SDS011;73190;50.780;5.658;2024-03-25T10:58:58;7.90;;;2.92;;
83282;SDS011;73190;50.780;5.658;2024-03-25T11:01:29;8.25;;;3.20;;
83282;SDS011;73190;50.780;5.658;2024-03-25T11:03:57;4.37;;;1.87;;
83282;SDS011;73190;50.780;5.658;2024-03-25T11:06:25;8.30;;;3.15;;
83282;SDS011;73190;50.780;5.658;2024-03-25T11:08:56;5.47;;;2.25;;
83282;SDS011;73190;50.780;5.658;2024-03-25T11:11:34;9.98;;;4.75;;
83282;SDS011;73190;50.780;5.658;2024-03-25T11:14:03;10.13;;;4.50;;
83282;SDS011;73190;50.780;5.658;2024-03-25T11:16:33;6.03;;;2.08;;
83282;SDS011;73190;50.780;5.658;2024-03-25T11:19:02;7.05;;;2.40;;
83282;SDS011;73190;50.780;5.658;2024-03-25T11:21:32;5.65;;;2.20;;
83282;SDS011;73190;50.780;5.658;2024-03-25T11:24:08;8.48;;;2.60;;
83282;SDS011;73190;50.780;5.658;2024-03-25T11:26:40;7.20;;;1.95;;
83282;SDS011;73190;50.780;5.658;2024-03-25T11:29:08;5.12;;;1.87;;
83282;SDS011;73190;50.780;5.658;2024-03-25T11:31:38;7.37;;;2.40;;
83282;SDS011;73190;50.780;5.658;2024-03-25T11:34:06;5.17;;;1.70;;
83282;SDS011;73190;50.780;5.658;2024-03-25T11:36:34;4.55;;;2.17;;
83282;SDS011;73190;50.780;5.658;2024-03-25T11:39:02;6.15;;;2.12;;
83282;SDS011;73190;50.780;5.658;2024-03-25T11:41:32;4.25;;;2.00;;
83282;SDS011;73190;50.780;5.658;2024-03-25T11:44:01;5.53;;;1.92;;
83282;SDS011;73190;50.780;5.658;2024-03-25T11:46:29;4.37;;;1.40;;
83282;SDS011;73190;50.780;5.658;2024-03-25T11:48:58;5.25;;;1.70;;
83282;SDS011;73190;50.780;5.658;2024-03-25T11:51:25;4.67;;;1.60;;
83282;SDS011;73190;50.780;5.658;2024-03-25T11:53:53;4.12;;;1.60;;
83282;SDS011;73190;50.780;5.658;2024-03-25T11:56:21;5.03;;;1.77;;
83282;SDS011;73190;50.780;5.658;2024-03-25T11:58:48;3.42;;;1.70;;
83282;SDS011;73190;50.780;5.658;2024-03-25T12:01:16;5.22;;;1.55;;
83282;SDS011;73190;50.780;5.658;2024-03-25T12:03:44;4.03;;;1.57;;
83282;SDS011;73190;50.780;5.658;2024-03-25T12:06:12;3.62;;;1.42;;
83282;SDS011;73190;50.780;5.658;2024-03-25T12:08:39;4.45;;;1.52;;
83282;SDS011;73190;50.780;5.658;2024-03-25T12:11:09;5.35;;;1.52;;
83282;SDS011;73190;50.780;5.658;2024-03-25T12:13:45;4.70;;;1.20;;
83282;SDS011;73190;50.780;5.658;2024-03-25T12:16:13;3.98;;;1.57;;
83282;SDS011;73190;50.780;5.658;2024-03-25T12:18:41;4.75;;;1.52;;
83282;SDS011;73190;50.780;5.658;2024-03-25T12:21:09;5.75;;;1.80;;
83282;SDS011;73190;50.780;5.658;2024-03-25T12:23:37;4.25;;;1.60;;
83282;SDS011;73190;50.780;5.658;2024-03-25T12:26:05;4.42;;;1.57;;
83282;SDS011;73190;50.780;5.658;2024-03-25T12:28:34;5.22;;;1.55;;
83282;SDS011;73190;50.780;5.658;2024-03-25T12:31:07;5.00;;;1.40;;
83282;SDS011;73190;50.780;5.658;2024-03-25T12:33:40;4.33;;;1.50;;
83282;SDS011;73190;50.780;5.658;2024-03-25T12:36:14;3.92;;;1.50;;
83282;SDS011;73190;50.780;5.658;2024-03-25T12:38:38;3.47;;;1.40;;
83282;SDS011;73190;50.780;5.658;2024-03-25T12:41:11;4.70;;;1.60;;
83282;SDS011;73190;50.780;5.658;2024-03-25T12:43:46;4.72;;;1.30;;
83282;SDS011;73190;50.780;5.658;2024-03-25T12:46:09;5.00;;;1.60;;
83282;SDS011;73190;50.780;5.658;2024-03-25T12:48:38;3.50;;;1.30;;
83282;SDS011;73190;50.780;5.658;2024-03-25T12:51:11;4.87;;;1.40;;
83282;SDS011;73190;50.780;5.658;2024-03-25T12:53:40;4.12;;;1.37;;
83282;SDS011;73190;50.780;5.658;2024-03-25T12:56:07;2.75;;;1.40;;
83282;SDS011;73190;50.780;5.658;2024-03-25T12:58:35;3.85;;;1.12;;
83282;SDS011;73190;50.780;5.658;2024-03-25T13:01:02;3.77;;;1.40;;
83282;SDS011;73190;50.780;5.658;2024-03-25T13:03:30;3.33;;;1.32;;
83282;SDS011;73190;50.780;5.658;2024-03-25T13:05:58;5.10;;;1.37;;
83282;SDS011;73190;50.780;5.658;2024-03-25T13:08:26;4.40;;;1.40;;
83282;SDS011;73190;50.780;5.658;2024-03-25T13:10:53;5.62;;;1.67;;
83282;SDS011;73190;50.780;5.658;2024-03-25T13:13:21;4.58;;;1.92;;
83282;SDS011;73190;50.780;5.658;2024-03-25T13:15:49;6.60;;;1.70;;
83282;SDS011;73190;50.780;5.658;2024-03-25T13:18:17;5.40;;;1.70;;
83282;SDS011;73190;50.780;5.658;2024-03-25T13:20:45;4.62;;;1.80;;
83282;SDS011;73190;50.780;5.658;2024-03-25T13:23:12;4.67;;;1.87;;
83282;SDS011;73190;50.780;5.658;2024-03-25T13:25:40;7.10;;;1.92;;
83282;SDS011;73190;50.780;5.658;2024-03-25T13:28:07;6.55;;;2.30;;
83282;SDS011;73190;50.780;5.658;2024-03-25T13:30:36;6.37;;;1.70;;
83282;SDS011;73190;50.780;5.658;2024-03-25T13:33:04;4.85;;;1.90;;
83282;SDS011;73190;50.780;5.658;2024-03-25T13:35:32;4.45;;;1.60;;
83282;SDS011;73190;50.780;5.658;2024-03-25T13:38:00;4.37;;;1.55;;
83282;SDS011;73190;50.780;5.658;2024-03-25T13:40:27;4.15;;;1.50;;
83282;SDS011;73190;50.780;5.658;2024-03-25T13:42:56;4.97;;;1.60;;
83282;SDS011;73190;50.780;5.658;2024-03-25T13:45:24;4.45;;;1.55;;
83282;SDS011;73190;50.780;5.658;2024-03-25T13:47:52;4.17;;;1.70;;
83282;SDS011;73190;50.780;5.658;2024-03-25T13:50:20;7.35;;;1.92;;
83282;SDS011;73190;50.780;5.658;2024-03-25T13:52:48;3.65;;;1.80;;
83282;SDS011;73190;50.780;5.658;2024-03-25T13:55:16;4.15;;;1.77;;
83282;SDS011;73190;50.780;5.658;2024-03-25T13:57:44;4.20;;;1.80;;
83282;SDS011;73190;50.780;5.658;2024-03-25T14:00:12;4.33;;;1.72;;
83282;SDS011;73190;50.780;5.658;2024-03-25T14:02:40;4.78;;;2.15;;
83282;SDS011;73190;50.780;5.658;2024-03-25T14:05:07;4.97;;;1.50;;
83282;SDS011;73190;50.780;5.658;2024-03-25T14:07:35;5.90;;;1.90;;
83282;SDS011;73190;50.780;5.658;2024-03-25T14:10:03;3.87;;;1.80;;
83282;SDS011;73190;50.780;5.658;2024-03-25T14:12:30;6.00;;;1.75;;
83282;SDS011;73190;50.780;5.658;2024-03-25T14:14:58;6.03;;;1.77;;
83282;SDS011;73190;50.780;5.658;2024-03-25T14:17:29;2.80;;;1.65;;
83282;SDS011;73190;50.780;5.658;2024-03-25T14:19:58;4.60;;;2.10;;
83282;SDS011;73190;50.780;5.658;2024-03-25T14:22:27;6.47;;;1.80;;
83282;SDS011;73190;50.780;5.658;2024-03-25T14:24:56;5.10;;;1.67;;
83282;SDS011;73190;50.780;5.658;2024-03-25T14:27:24;4.92;;;1.72;;
83282;SDS011;73190;50.780;5.658;2024-03-25T14:29:55;3.30;;;1.30;;
83282;SDS011;73190;50.780;5.658;2024-03-25T14:32:24;4.12;;;1.30;;
83282;SDS011;73190;50.780;5.658;2024-03-25T14:34:52;4.28;;;1.75;;
83282;SDS011;73190;50.780;5.658;2024-03-25T14:37:23;4.30;;;1.62;;
83282;SDS011;73190;50.780;5.658;2024-03-25T14:39:55;2.90;;;1.30;;
83282;SDS011;73190;50.780;5.658;2024-03-25T14:42:24;3.98;;;1.40;;
83282;SDS011;73190;50.780;5.658;2024-03-25T14:44:54;2.92;;;1.27;;
83282;SDS011;73190;50.780;5.658;2024-03-25T14:47:23;2.50;;;1.00;;